Pindall, Arkansas
Current Conditions -  °F | °C
As of 3:53 PM on Sunday 23 Nov 2014 (Local Time) from KHRO Reporting Station
Few Clouds Few Clouds  
Wind Chill: 16°   Ceiling: Unl
Heat Index: 16°   Visibility: 10mi
Dew Point: 13°   Wind: 9mph
Humidity: 83%   Direction: 150°SSE
Pressure: 29.31"   Gusts: NA
Location:  36.07°N, 92.88°W
Report Text: KHRO 232153Z AUTO 15008KT 10SM FEW027 16/13 A2931 RMK AO2 SLP917 T01560128
Loading
Personal Weather Stations






























Interactive Weather Map New forecast layout! Learn more

10-Day Weather Forecast

Advertisements
Track Severe Weather on mobile